createdAt,value
2023-08-28T00:02:25.499Z,99937.47
2023-08-28T00:04:52.285Z,99934.00
2023-08-28T00:07:19.003Z,99935.78
2023-08-28T00:09:45.575Z,99935.84
2023-08-28T00:12:12.209Z,99932.34
2023-08-28T00:14:38.872Z,99935.91
2023-08-28T00:17:06.559Z,99932.50
2023-08-28T00:19:33.229Z,99930.81
2023-08-28T00:21:59.840Z,99934.28
2023-08-28T00:24:26.369Z,99931.75
2023-08-28T00:26:52.999Z,99930.03
2023-08-28T00:29:19.620Z,99932.69
2023-08-28T00:31:46.252Z,99926.63
2023-08-28T00:34:12.833Z,99930.97
2023-08-28T00:36:39.362Z,99924.09
2023-08-28T00:39:06.015Z,99924.13
2023-08-28T00:41:32.789Z,99919.81
2023-08-28T00:43:59.494Z,99919.84
2023-08-28T00:46:26.593Z,99917.25
2023-08-28T00:48:53.368Z,99914.66
2023-08-28T00:51:20.401Z,99919.03
2023-08-28T00:53:46.996Z,99912.13
2023-08-28T00:56:13.669Z,99921.66
2023-08-28T00:58:40.537Z,99925.13
2023-08-28T01:01:07.480Z,99923.41
2023-08-28T01:03:34.139Z,99919.97
2023-08-28T01:06:17.777Z,99920.81
2023-08-28T01:11:41.905Z,99936.41
2023-08-28T01:14:16.984Z,99936.41
2023-08-28T01:16:46.180Z,99936.41
2023-08-28T01:19:25.866Z,99943.41
2023-08-28T01:22:00.180Z,99938.19
2023-08-28T01:24:31.841Z,99936.50
2023-08-28T01:26:59.540Z,99933.03
2023-08-28T01:29:28.049Z,99940.84
2023-08-28T01:31:54.762Z,99943.47
2023-08-28T01:34:21.386Z,99943.47
2023-08-28T01:36:54.371Z,99940.03
2023-08-28T01:39:27.244Z,99946.06
2023-08-28T01:41:54.505Z,99944.34
2023-08-28T01:44:23.298Z,99948.63
2023-08-28T01:46:50.371Z,99942.59
2023-08-28T01:49:17.157Z,99941.69
2023-08-28T01:51:44.624Z,99944.28
2023-08-28T01:54:11.476Z,99945.16
2023-08-28T01:56:38.093Z,99946.94
2023-08-28T01:59:04.848Z,99946.97
2023-08-28T02:01:31.550Z,99945.25
2023-08-28T02:03:58.328Z,99945.28
2023-08-28T02:06:25.221Z,99950.53
2023-08-28T02:08:51.840Z,99948.84
2023-08-28T02:11:18.694Z,99947.16
2023-08-28T02:13:45.374Z,99950.66
2023-08-28T02:16:12.136Z,99947.22
2023-08-28T02:18:38.872Z,99950.72
2023-08-28T02:21:05.534Z,99947.31
2023-08-28T02:23:32.146Z,99940.38
2023-08-28T02:25:58.737Z,99943.88
2023-08-28T02:28:26.550Z,99943.91
2023-08-28T02:30:53.372Z,99942.22
2023-08-28T02:33:20.152Z,99946.56
2023-08-28T02:35:46.818Z,99946.59
2023-08-28T02:38:13.473Z,99950.06
2023-08-28T02:40:40.693Z,99944.03
2023-08-28T02:43:08.186Z,99940.59
2023-08-28T02:45:41.322Z,99942.34
2023-08-28T02:48:10.517Z,99939.75
2023-08-28T02:50:37.682Z,99942.38
2023-08-28T02:53:05.336Z,99940.66
2023-08-28T02:55:39.638Z,99944.09
2023-08-28T02:58:06.382Z,99944.97
2023-08-28T03:00:34.366Z,99942.34
2023-08-28T03:03:02.347Z,99944.97
2023-08-28T03:05:29.341Z,99940.69
2023-08-28T03:07:56.047Z,99942.44
2023-08-28T03:10:23.619Z,99942.47
2023-08-28T03:12:50.193Z,99941.63
2023-08-28T03:15:16.889Z,99932.97
2023-08-28T03:17:43.582Z,99932.16
2023-08-28T03:20:11.267Z,99932.16
2023-08-28T03:22:38.029Z,99925.25
2023-08-28T03:25:06.182Z,99923.50
2023-08-28T03:27:33.151Z,99919.22
2023-08-28T03:29:59.802Z,99919.22
2023-08-28T03:32:26.470Z,99916.63
2023-08-28T03:34:53.088Z,99921.00
2023-08-28T03:37:19.767Z,99914.94
2023-08-28T03:39:46.381Z,99925.31
2023-08-28T03:42:12.988Z,99914.94
2023-08-28T03:44:39.627Z,99912.34
2023-08-28T03:47:06.276Z,99920.16
2023-08-28T03:49:32.912Z,99921.03
2023-08-28T03:52:00.636Z,99918.44
2023-08-28T03:54:29.199Z,99920.16
2023-08-28T03:56:56.198Z,99914.06
2023-08-28T03:59:23.252Z,99914.06
2023-08-28T04:01:50.499Z,99916.63
2023-08-28T04:04:17.996Z,99920.09
2023-08-28T04:06:44.934Z,99914.88
2023-08-28T04:09:11.558Z,99921.75
2023-08-28T04:11:38.126Z,99919.94
2023-08-28T04:14:04.821Z,99919.03
2023-08-28T04:16:31.592Z,99925.88
2023-08-28T04:18:58.317Z,99923.25
2023-08-28T04:21:25.081Z,99928.41
2023-08-28T04:23:51.664Z,99924.84
2023-08-28T04:26:18.254Z,99923.09
2023-08-28T04:28:44.905Z,99923.91
2023-08-28T04:31:12.831Z,99916.91
2023-08-28T04:33:39.573Z,99916.91
2023-08-28T04:36:06.398Z,99921.22
2023-08-28T04:38:33.093Z,99923.84
2023-08-28T04:40:59.863Z,99923.00
2023-08-28T04:43:26.566Z,99929.94
2023-08-28T04:45:54.182Z,99931.72
2023-08-28T04:48:20.903Z,99928.28
2023-08-28T04:50:47.581Z,99922.28
2023-08-28T04:53:14.175Z,99928.38
2023-08-28T04:55:41.118Z,99926.66
2023-08-28T04:58:07.933Z,99939.72
2023-08-28T05:00:34.819Z,99937.97
2023-08-28T05:03:01.719Z,99942.31
2023-08-28T05:05:28.668Z,99942.31
2023-08-28T05:07:55.303Z,99945.78
2023-08-28T05:10:22.137Z,99940.66
2023-08-28T05:12:48.761Z,99945.88
2023-08-28T05:15:15.399Z,99950.22
2023-08-28T05:17:42.130Z,99941.59
2023-08-28T05:20:09.321Z,99945.94
2023-08-28T05:22:35.998Z,99949.41
2023-08-28T05:25:02.534Z,99957.13
2023-08-28T05:27:29.201Z,99950.19
2023-08-28T05:29:55.760Z,99948.41
2023-08-28T05:32:22.376Z,99952.66
2023-08-28T05:34:51.676Z,99954.38
2023-08-28T05:37:18.968Z,99961.25
2023-08-28T05:39:45.580Z,99967.22
2023-08-28T05:42:12.205Z,99971.50
2023-08-28T05:44:39.307Z,99971.47
2023-08-28T05:47:06.496Z,99974.84
2023-08-28T05:49:33.326Z,99986.09
2023-08-28T05:51:59.928Z,99986.88
2023-08-28T05:54:27.078Z,99992.88
2023-08-28T05:56:53.705Z,99987.56
2023-08-28T05:59:20.355Z,99991.81
2023-08-28T06:01:47.267Z,99993.47
2023-08-28T06:04:14.083Z,99989.91
2023-08-28T06:06:40.731Z,99991.50
2023-08-28T06:09:07.616Z,99990.56
2023-08-28T06:11:34.679Z,99992.19
2023-08-28T06:14:01.508Z,99980.81
2023-08-28T06:16:28.236Z,99984.19
2023-08-28T06:18:55.433Z,99989.28
2023-08-28T06:21:22.115Z,99993.50
2023-08-28T06:23:48.681Z,99989.03
2023-08-28T06:26:15.245Z,99998.44
2023-08-28T06:28:41.883Z,99999.97
2023-08-28T06:31:08.531Z,99996.34
2023-08-28T06:33:35.983Z,99996.19
2023-08-28T06:36:03.458Z,99996.84
2023-08-28T06:38:30.126Z,100001.81
2023-08-28T06:40:57.078Z,100006.72
2023-08-28T06:43:23.692Z,99998.69
2023-08-28T06:45:50.316Z,100007.22
2023-08-28T06:48:16.907Z,100011.41
2023-08-28T06:50:43.567Z,100011.25
2023-08-28T06:53:10.231Z,100011.78
2023-08-28T06:55:37.892Z,100016.41
2023-08-28T06:58:04.688Z,100023.00
2023-08-28T07:00:31.541Z,100014.91
2023-08-28T07:02:59.516Z,100018.00
2023-08-28T07:05:26.445Z,100013.56
2023-08-28T07:07:53.166Z,100015.19
2023-08-28T07:10:19.874Z,100014.53
2023-08-28T07:12:46.587Z,100016.97
2023-08-28T07:17:56.842Z,100025.72
2023-08-28T07:20:24.519Z,100037.91
2023-08-28T07:22:53.114Z,100030.09
2023-08-28T07:25:22.974Z,100036.38
2023-08-28T07:27:50.849Z,100038.19
2023-08-28T07:30:18.333Z,100038.16
2023-08-28T07:32:45.223Z,100035.56
2023-08-28T07:35:12.014Z,100034.63
2023-08-28T07:37:38.805Z,100041.56
2023-08-28T07:40:07.228Z,100038.81
2023-08-28T07:42:34.568Z,100034.47
2023-08-28T07:45:01.333Z,100037.06
2023-08-28T07:47:28.592Z,100038.00
2023-08-28T07:49:55.758Z,100034.53
2023-08-28T07:52:22.426Z,100039.69
2023-08-28T07:54:49.088Z,100038.69
2023-08-28T07:57:15.734Z,100031.53
2023-08-28T07:59:42.438Z,100038.34
2023-08-28T08:02:09.260Z,100039.84
2023-08-28T08:04:37.498Z,100048.19
2023-08-28T08:07:04.450Z,100051.34
2023-08-28T08:09:31.132Z,100050.16
2023-08-28T08:11:57.873Z,100053.41
2023-08-28T08:14:24.560Z,100061.84
2023-08-28T08:16:51.254Z,100059.09
2023-08-28T08:19:18.072Z,100065.91
2023-08-28T08:21:44.852Z,100065.00
2023-08-28T08:24:11.487Z,100065.91
2023-08-28T08:26:38.111Z,100067.56
2023-08-28T08:29:05.475Z,100066.69
2023-08-28T08:31:32.395Z,100070.91
2023-08-28T08:33:59.149Z,100073.13
2023-08-28T08:36:25.695Z,100067.59
2023-08-28T08:38:52.385Z,100074.25
2023-08-28T08:41:19.054Z,100059.75
2023-08-28T08:43:45.722Z,100069.69
2023-08-28T08:46:13.094Z,100068.13
2023-08-28T08:48:43.018Z,100066.53
2023-08-28T08:51:09.807Z,100069.50
2023-08-28T08:56:24.355Z,100068.72
2023-08-28T08:58:51.456Z,100057.97
2023-08-28T09:01:18.180Z,100057.00
2023-08-28T09:03:45.780Z,100062.88
2023-08-28T09:06:13.309Z,100066.97
2023-08-28T09:08:43.583Z,100069.84
2023-08-28T09:11:10.316Z,100058.78
2023-08-28T09:13:38.641Z,100065.50
2023-08-28T09:16:06.160Z,100055.63
2023-08-28T09:18:32.977Z,100050.50
2023-08-28T09:21:08.905Z,100057.34
2023-08-28T09:23:43.733Z,100059.00
2023-08-28T09:26:14.374Z,100064.78
2023-08-28T09:28:41.039Z,100058.59
2023-08-28T09:31:07.868Z,100063.56
2023-08-28T09:34:01.354Z,100054.84
2023-08-28T09:36:36.034Z,100059.97
2023-08-28T09:39:05.306Z,100054.41
2023-08-28T09:41:49.684Z,100051.78
2023-08-28T09:44:18.044Z,100048.53
2023-08-28T09:46:46.825Z,100047.78
2023-08-28T09:49:14.942Z,100044.75
2023-08-28T09:51:47.267Z,100043.94
2023-08-28T09:54:16.545Z,100049.34
2023-08-28T09:56:44.664Z,100051.03
2023-08-28T09:59:13.358Z,100041.38
2023-08-28T10:01:40.226Z,100037.38
2023-08-28T10:04:08.845Z,100044.53
2023-08-28T10:06:39.377Z,100050.84
2023-08-28T10:09:11.963Z,100048.06
2023-08-28T10:11:40.288Z,100046.78
2023-08-28T10:14:08.212Z,100041.78
2023-08-28T10:16:43.036Z,100046.59
2023-08-28T10:21:48.966Z,100039.59
2023-08-28T10:24:18.727Z,100044.78
2023-08-28T10:26:47.764Z,100048.53
2023-08-28T10:29:18.413Z,100042.81
2023-08-28T10:31:46.032Z,100047.75
2023-08-28T10:34:13.260Z,100049.44
2023-08-28T10:37:00.518Z,100047.59
2023-08-28T10:39:29.301Z,100050.13
2023-08-28T10:41:57.209Z,100050.75
2023-08-28T10:44:24.595Z,100051.69
2023-08-28T10:46:53.156Z,100055.91
2023-08-28T10:49:20.034Z,100055.91
2023-08-28T10:51:47.320Z,100053.66
2023-08-28T10:54:13.968Z,100048.06
2023-08-28T10:56:41.244Z,100045.44
2023-08-28T10:59:28.012Z,100050.97
2023-08-28T11:01:57.111Z,100055.72
2023-08-28T11:04:25.840Z,100052.84
2023-08-28T11:06:52.775Z,100056.22
2023-08-28T11:09:38.161Z,100061.25
2023-08-28T11:14:56.717Z,100056.56
2023-08-28T11:17:25.720Z,100058.41
2023-08-28T11:25:35.412Z,100063.66
2023-08-28T11:28:02.341Z,100060.50
2023-08-28T11:30:30.530Z,100059.22
2023-08-28T11:32:57.897Z,100055.38
2023-08-28T11:35:24.990Z,100054.84
2023-08-28T11:37:54.346Z,100051.47
2023-08-28T11:40:23.685Z,100059.56
2023-08-28T11:42:51.480Z,100050.25
2023-08-28T11:45:22.933Z,100051.09
2023-08-28T11:47:52.380Z,100055.13
2023-08-28T11:50:19.627Z,100045.81
2023-08-28T11:52:50.693Z,100056.97
2023-08-28T11:55:17.531Z,100051.22
2023-08-28T11:57:45.241Z,100056.09
2023-08-28T12:00:16.131Z,100056.00
2023-08-28T12:02:45.487Z,100050.59
2023-08-28T12:05:13.884Z,100057.41
2023-08-28T12:07:44.476Z,100059.09
2023-08-28T12:10:13.112Z,100056.47
2023-08-28T12:12:39.940Z,100061.13
2023-08-28T12:15:07.914Z,100056.31
2023-08-28T12:17:34.580Z,100058.66
2023-08-28T12:20:01.502Z,100060.16
2023-08-28T12:22:28.492Z,100059.78
2023-08-28T12:24:59.320Z,100054.97
2023-08-28T12:27:28.513Z,100055.44
2023-08-28T12:29:55.735Z,100060.50
2023-08-28T12:32:22.659Z,100057.09
2023-08-28T12:34:49.810Z,100058.19
2023-08-28T12:37:17.226Z,100054.63
2023-08-28T12:39:48.102Z,100064.16
2023-08-28T12:42:15.288Z,100060.50
2023-08-28T12:44:44.124Z,100063.06
2023-08-28T12:47:13.149Z,100064.72
2023-08-28T12:49:42.339Z,100058.53
2023-08-28T12:52:09.641Z,100054.31
2023-08-28T12:54:37.323Z,100060.97
2023-08-28T12:57:05.389Z,100054.44
2023-08-28T12:59:32.867Z,100059.22
2023-08-28T13:02:00.538Z,100057.66
2023-08-28T13:04:28.345Z,100058.53
2023-08-28T13:06:55.415Z,100061.22
2023-08-28T13:09:24.628Z,100064.78
2023-08-28T13:11:52.084Z,100073.19
2023-08-28T13:14:18.957Z,100067.59
2023-08-28T13:16:45.678Z,100064.59
2023-08-28T13:19:12.331Z,100076.56
2023-08-28T13:21:39.025Z,100070.78
2023-08-28T13:24:06.507Z,100081.66
2023-08-28T13:26:33.311Z,100079.19
2023-08-28T13:29:00.839Z,100073.59
2023-08-28T13:31:27.585Z,100080.56
2023-08-28T13:33:54.834Z,100071.59
2023-08-28T13:36:21.716Z,100071.41
2023-08-28T13:38:49.770Z,100075.34
2023-08-28T13:41:16.681Z,100069.06
2023-08-28T13:43:43.294Z,100064.72
2023-08-28T13:46:09.972Z,100067.38
2023-08-28T13:48:36.736Z,100076.38
2023-08-28T13:51:05.911Z,100069.41
2023-08-28T13:53:32.546Z,100064.13
2023-08-28T13:55:59.516Z,100067.22
2023-08-28T13:58:26.277Z,100060.28
2023-08-28T14:00:58.326Z,100064.84
2023-08-28T14:03:27.412Z,100060.56
2023-08-28T14:05:57.520Z,100065.31
2023-08-28T14:08:24.646Z,100058.53
2023-08-28T14:10:51.297Z,100058.03
2023-08-28T14:13:17.919Z,100042.97
2023-08-28T14:15:48.905Z,100059.06
2023-08-28T14:18:21.266Z,100050.25
2023-08-28T14:20:52.680Z,100049.22
2023-08-28T14:23:21.460Z,100054.28
2023-08-28T14:25:49.322Z,100063.13
2023-08-28T14:28:21.818Z,100052.91
2023-08-28T14:30:50.475Z,100058.53
2023-08-28T14:33:19.982Z,100053.59
2023-08-28T14:35:46.778Z,100058.19
2023-08-28T14:38:15.101Z,100059.03
2023-08-28T14:40:47.647Z,100055.47
2023-08-28T14:43:14.775Z,100059.88
2023-08-28T14:45:41.915Z,100056.47
2023-08-28T14:48:08.962Z,100055.94
2023-08-28T14:50:35.984Z,100056.09
2023-08-28T14:53:03.098Z,100054.56
2023-08-28T14:55:29.966Z,100054.06
2023-08-28T14:57:56.633Z,100064.09
2023-08-28T15:00:23.783Z,100058.34
2023-08-28T15:02:50.765Z,100059.44
2023-08-28T15:05:18.064Z,100064.00
2023-08-28T15:07:44.762Z,100062.47
2023-08-28T15:10:11.389Z,100074.19
2023-08-28T15:12:38.031Z,100066.69
2023-08-28T15:15:05.711Z,100057.06
2023-08-28T15:17:32.554Z,100061.97
2023-08-28T15:20:02.875Z,100062.81
2023-08-28T15:22:32.607Z,100064.16
2023-08-28T15:25:01.404Z,100065.44
2023-08-28T15:27:30.688Z,100071.78
2023-08-28T15:29:58.703Z,100062.34
2023-08-28T15:32:27.071Z,100068.53
2023-08-28T15:34:53.801Z,100074.56
2023-08-28T15:37:20.876Z,100077.19
2023-08-28T15:39:48.031Z,100071.94
2023-08-28T15:42:14.728Z,100076.31
2023-08-28T15:44:41.623Z,100076.59
2023-08-28T15:47:08.904Z,100075.03
2023-08-28T15:49:37.297Z,100086.56
2023-08-28T15:52:04.797Z,100080.75
2023-08-28T15:54:31.636Z,100075.63
2023-08-28T15:56:58.418Z,100080.03
2023-08-28T15:59:26.650Z,100078.38
2023-08-28T16:01:55.900Z,100080.25
2023-08-28T16:04:23.018Z,100080.31
2023-08-28T16:06:49.702Z,100075.13
2023-08-28T16:09:16.420Z,100072.63
2023-08-28T16:11:53.181Z,100086.16
2023-08-28T16:14:19.815Z,100087.94
2023-08-28T16:16:46.762Z,100091.41
2023-08-28T16:19:15.189Z,100089.84
2023-08-28T16:21:42.116Z,100090.91
2023-08-28T16:24:09.632Z,100092.84
2023-08-28T16:26:36.523Z,100084.31
2023-08-28T16:29:09.320Z,100090.81
2023-08-28T16:31:36.755Z,100085.81
2023-08-28T16:34:09.070Z,100091.28
2023-08-28T16:36:36.196Z,100081.81
2023-08-28T16:39:03.663Z,100086.31
2023-08-28T16:41:30.396Z,100087.50
2023-08-28T16:43:57.229Z,100073.97
2023-08-28T16:46:23.955Z,100077.91
2023-08-28T16:48:55.626Z,100069.63
2023-08-28T16:51:22.309Z,100078.56
2023-08-28T16:53:49.805Z,100082.19
2023-08-28T16:56:17.789Z,100082.38
2023-08-28T16:58:44.675Z,100079.84
2023-08-28T17:01:11.271Z,100075.53
2023-08-28T17:03:38.054Z,100072.13
2023-08-28T17:06:05.059Z,100073.97
2023-08-28T17:08:31.791Z,100067.00
2023-08-28T17:10:58.650Z,100070.56
2023-08-28T17:13:25.939Z,100082.88
2023-08-28T17:15:53.118Z,100077.88
2023-08-28T17:18:20.588Z,100084.09
2023-08-28T17:20:47.216Z,100081.69
2023-08-28T17:23:14.121Z,100075.63
2023-08-28T17:25:41.449Z,100085.34
2023-08-28T17:28:10.402Z,100077.72
2023-08-28T17:30:38.015Z,100081.38
2023-08-28T17:33:05.025Z,100081.50
2023-08-28T17:35:31.765Z,100077.28
2023-08-28T17:37:59.584Z,100079.13
2023-08-28T17:40:26.273Z,100084.56
2023-08-28T17:42:52.902Z,100086.59
2023-08-28T17:45:19.647Z,100085.97
2023-08-28T17:47:46.289Z,100085.22
2023-08-28T17:50:13.132Z,100078.41
2023-08-28T17:52:39.827Z,100081.94
2023-08-28T17:55:06.822Z,100080.34
2023-08-28T17:57:33.651Z,100078.63
2023-08-28T18:00:00.518Z,100085.84
2023-08-28T18:02:38.775Z,100081.63
2023-08-28T18:05:07.441Z,100082.53
2023-08-28T18:07:34.189Z,100075.69
2023-08-28T18:10:00.842Z,100075.81
2023-08-28T18:12:28.089Z,100073.28
2023-08-28T18:14:54.921Z,100076.03
2023-08-28T18:17:21.552Z,100077.03
2023-08-28T18:19:48.197Z,100080.63
2023-08-28T18:22:14.963Z,100078.06
2023-08-28T18:24:41.616Z,100081.66
2023-08-28T18:27:08.279Z,100074.88
2023-08-28T18:29:35.057Z,100079.34
2023-08-28T18:32:01.812Z,100080.34
2023-08-28T18:34:28.787Z,100073.50
2023-08-28T18:36:55.459Z,100074.47
2023-08-28T18:39:22.237Z,100064.94
2023-08-28T18:42:03.300Z,100072.91
2023-08-28T18:44:36.439Z,100070.41
2023-08-28T18:47:05.183Z,100067.88
2023-08-28T18:49:31.824Z,100064.53
2023-08-28T18:51:58.631Z,100058.56
2023-08-28T18:54:25.250Z,100068.34
2023-08-28T18:56:51.899Z,100067.56
2023-08-28T18:59:18.602Z,100067.66
2023-08-28T19:01:45.288Z,100071.28
2023-08-28T19:04:12.134Z,100075.78
2023-08-28T19:06:38.931Z,100075.03
2023-08-28T19:09:05.985Z,100078.69
2023-08-28T19:11:32.844Z,100079.66
2023-08-28T19:13:59.605Z,100073.63
2023-08-28T19:16:26.290Z,100077.28
2023-08-28T19:18:53.282Z,100074.75
2023-08-28T19:21:20.113Z,100079.22
2023-08-28T19:23:46.780Z,100082.84
2023-08-28T19:26:13.601Z,100087.28
2023-08-28T19:28:40.747Z,100091.72
2023-08-28T19:31:07.463Z,100093.53
2023-08-28T19:33:34.308Z,100094.47
2023-08-28T19:36:01.009Z,100093.59
2023-08-28T19:38:27.753Z,100091.97
2023-08-28T19:40:54.349Z,100091.19
2023-08-28T19:43:21.373Z,100093.03
2023-08-28T19:45:48.041Z,100089.63
2023-08-28T19:48:14.815Z,100093.22
2023-08-28T19:50:41.579Z,100091.47
2023-08-28T19:53:08.630Z,100085.50
2023-08-28T19:55:36.595Z,100080.31
2023-08-28T19:58:04.275Z,100085.63
2023-08-28T20:00:31.339Z,100084.94
2023-08-28T20:02:59.293Z,100092.88
2023-08-28T20:05:26.015Z,100099.94
2023-08-28T20:07:53.224Z,100092.97
2023-08-28T20:10:20.119Z,100099.19
2023-08-28T20:12:48.404Z,100104.47
2023-08-28T20:15:16.936Z,100102.75
2023-08-28T20:17:43.826Z,100109.78
2023-08-28T20:20:12.944Z,100101.94
2023-08-28T20:22:42.453Z,100104.63
2023-08-28T20:25:09.354Z,100107.38
2023-08-28T20:27:36.045Z,100102.22
2023-08-28T20:30:02.774Z,100111.97
2023-08-28T20:32:29.486Z,100102.41
2023-08-28T20:34:56.187Z,100102.53
2023-08-28T20:37:22.872Z,100107.84
2023-08-28T20:39:49.759Z,100105.31
2023-08-28T20:42:17.190Z,100097.56
2023-08-28T20:44:44.017Z,100099.38
2023-08-28T20:47:10.847Z,100105.53
2023-08-28T20:49:37.568Z,100096.03
2023-08-28T20:52:04.840Z,100096.13
2023-08-28T20:54:31.428Z,100089.25
2023-08-28T20:56:58.066Z,100098.06
2023-08-28T20:59:25.073Z,100092.06
2023-08-28T21:01:51.747Z,100096.47
2023-08-28T21:04:18.466Z,100095.72
2023-08-28T21:06:45.393Z,100095.75
2023-08-28T21:09:12.042Z,100100.13
2023-08-28T21:11:38.786Z,100095.84
2023-08-28T21:14:05.499Z,100098.50
2023-08-28T21:16:32.531Z,100101.16
2023-08-28T21:18:59.268Z,100089.94
2023-08-28T21:21:25.952Z,100090.03
2023-08-28T21:23:52.568Z,100093.56
2023-08-28T21:26:19.237Z,100099.69
2023-08-28T21:28:46.044Z,100097.97
2023-08-28T21:31:12.754Z,100098.88
2023-08-28T21:33:39.652Z,100086.69
2023-08-28T21:36:07.231Z,100085.81
2023-08-28T21:38:35.606Z,100083.25
2023-08-28T21:41:06.782Z,100087.66
2023-08-28T21:43:35.213Z,100077.31
2023-08-28T21:46:04.581Z,100076.47
2023-08-28T21:48:32.817Z,100074.84
2023-08-28T21:51:01.202Z,100076.66
2023-08-28T21:53:28.140Z,100079.31
2023-08-28T21:55:55.296Z,100078.56
2023-08-28T21:58:22.634Z,100076.81
2023-08-28T22:00:49.808Z,100069.03
2023-08-28T22:03:17.260Z,100065.56
2023-08-28T22:05:47.041Z,100062.09
2023-08-28T22:08:14.344Z,100068.69
2023-08-28T22:10:43.087Z,100063.03
2023-08-28T22:13:10.643Z,100064.75
2023-08-28T22:15:41.466Z,100071.66
2023-08-28T22:18:11.144Z,100058.59
2023-08-28T22:20:42.699Z,100058.66
2023-08-28T22:23:10.955Z,100056.91
2023-08-28T22:25:39.895Z,100060.38
2023-08-28T22:28:07.047Z,100055.97
2023-08-28T22:30:34.855Z,100057.72
2023-08-28T22:33:01.721Z,100051.66
2023-08-28T22:35:28.606Z,100049.97
2023-08-28T22:37:55.301Z,100052.66
2023-08-28T22:40:22.400Z,100056.19
2023-08-28T22:42:49.772Z,100056.25
2023-08-28T22:45:17.533Z,100051.94
2023-08-28T22:47:44.491Z,100056.31
2023-08-28T22:50:11.202Z,100052.03
2023-08-28T22:52:37.907Z,100057.31
2023-08-28T22:55:04.818Z,100051.28
2023-08-28T22:57:31.749Z,100047.84
2023-08-28T22:59:59.968Z,100047.03
2023-08-28T23:02:26.666Z,100037.47
2023-08-28T23:04:53.264Z,100041.88
2023-08-28T23:07:20.356Z,100046.28
2023-08-28T23:09:46.996Z,100039.34
2023-08-28T23:12:13.645Z,100038.53
2023-08-28T23:14:40.214Z,100034.19
2023-08-28T23:17:07.100Z,100034.19
2023-08-28T23:19:33.883Z,100032.50
2023-08-28T23:22:00.540Z,100032.50
2023-08-28T23:24:27.203Z,100032.50
2023-08-28T23:26:55.681Z,100020.34
2023-08-28T23:29:22.348Z,100025.56
2023-08-28T23:31:49.527Z,100026.44
2023-08-28T23:34:16.845Z,100023.88
2023-08-28T23:36:45.366Z,100016.03
2023-08-28T23:39:12.689Z,100014.31
2023-08-28T23:41:39.475Z,100011.75
2023-08-28T23:44:06.320Z,100015.25
2023-08-28T23:46:32.913Z,100008.34
2023-08-28T23:48:59.627Z,100011.81
2023-08-28T23:51:26.263Z,100012.72
2023-08-28T23:53:52.886Z,100015.34
2023-08-28T23:56:19.544Z,100012.75
2023-08-28T23:58:46.174Z,100005.84
